sensor_id;sensor_type;location;lat;lon;timestamp;P1;durP1;ratioP1;P2;durP2;ratioP2
52031;SDS011;38044;45.148;39.604;2022-11-13T00:02:02;31.27;;;18.73;;
52031;SDS011;38044;45.148;39.604;2022-11-13T00:04:28;32.83;;;19.65;;
52031;SDS011;38044;45.148;39.604;2022-11-13T00:06:54;33.88;;;20.60;;
52031;SDS011;38044;45.148;39.604;2022-11-13T00:09:20;29.70;;;18.08;;
52031;SDS011;38044;45.148;39.604;2022-11-13T00:11:50;28.83;;;16.02;;
52031;SDS011;38044;45.148;39.604;2022-11-13T00:14:16;30.60;;;16.45;;
52031;SDS011;38044;45.148;39.604;2022-11-13T00:16:41;25.90;;;15.43;;
52031;SDS011;38044;45.148;39.604;2022-11-13T00:19:07;28.33;;;17.52;;
52031;SDS011;38044;45.148;39.604;2022-11-13T00:21:33;29.92;;;19.45;;
52031;SDS011;38044;45.148;39.604;2022-11-13T00:23:59;31.30;;;18.17;;
52031;SDS011;38044;45.148;39.604;2022-11-13T00:26:26;32.30;;;18.17;;
52031;SDS011;38044;45.148;39.604;2022-11-13T00:28:55;32.13;;;18.98;;
52031;SDS011;38044;45.148;39.604;2022-11-13T00:31:25;29.30;;;17.52;;
52031;SDS011;38044;45.148;39.604;2022-11-13T00:33:52;30.95;;;18.75;;
52031;SDS011;38044;45.148;39.604;2022-11-13T00:36:20;32.45;;;18.15;;
52031;SDS011;38044;45.148;39.604;2022-11-13T00:38:47;34.38;;;19.20;;
52031;SDS011;38044;45.148;39.604;2022-11-13T00:41:13;32.20;;;18.70;;
52031;SDS011;38044;45.148;39.604;2022-11-13T00:43:39;32.70;;;18.13;;
52031;SDS011;38044;45.148;39.604;2022-11-13T00:46:06;35.97;;;19.17;;
52031;SDS011;38044;45.148;39.604;2022-11-13T00:48:33;32.90;;;19.00;;
52031;SDS011;38044;45.148;39.604;2022-11-13T00:50:59;32.47;;;20.27;;
52031;SDS011;38044;45.148;39.604;2022-11-13T00:53:25;29.42;;;18.63;;
52031;SDS011;38044;45.148;39.604;2022-11-13T00:55:51;33.92;;;19.33;;
52031;SDS011;38044;45.148;39.604;2022-11-13T00:58:17;32.50;;;18.75;;
52031;SDS011;38044;45.148;39.604;2022-11-13T01:00:43;35.00;;;19.25;;
52031;SDS011;38044;45.148;39.604;2022-11-13T01:03:11;34.70;;;19.42;;
52031;SDS011;38044;45.148;39.604;2022-11-13T01:05:38;38.13;;;20.05;;
52031;SDS011;38044;45.148;39.604;2022-11-13T01:08:06;31.38;;;19.17;;
52031;SDS011;38044;45.148;39.604;2022-11-13T01:10:32;35.25;;;20.80;;
52031;SDS011;38044;45.148;39.604;2022-11-13T01:12:59;31.60;;;18.80;;
52031;SDS011;38044;45.148;39.604;2022-11-13T01:15:25;33.97;;;19.67;;
52031;SDS011;38044;45.148;39.604;2022-11-13T01:17:51;31.52;;;19.20;;
52031;SDS011;38044;45.148;39.604;2022-11-13T01:20:19;33.72;;;20.83;;
52031;SDS011;38044;45.148;39.604;2022-11-13T01:22:49;36.65;;;20.67;;
52031;SDS011;38044;45.148;39.604;2022-11-13T01:25:15;36.58;;;20.65;;
52031;SDS011;38044;45.148;39.604;2022-11-13T01:27:41;34.55;;;19.73;;
52031;SDS011;38044;45.148;39.604;2022-11-13T01:30:07;37.85;;;20.75;;
52031;SDS011;38044;45.148;39.604;2022-11-13T01:32:33;36.80;;;20.58;;
52031;SDS011;38044;45.148;39.604;2022-11-13T01:34:59;39.63;;;21.67;;
52031;SDS011;38044;45.148;39.604;2022-11-13T01:37:25;40.20;;;22.73;;
52031;SDS011;38044;45.148;39.604;2022-11-13T01:39:51;40.22;;;22.95;;
52031;SDS011;38044;45.148;39.604;2022-11-13T01:42:17;36.67;;;19.85;;
52031;SDS011;38044;45.148;39.604;2022-11-13T01:44:56;37.67;;;21.00;;
52031;SDS011;38044;45.148;39.604;2022-11-13T01:47:29;38.28;;;21.20;;
52031;SDS011;38044;45.148;39.604;2022-11-13T01:49:57;37.22;;;20.75;;
52031;SDS011;38044;45.148;39.604;2022-11-13T01:52:27;39.22;;;21.38;;
52031;SDS011;38044;45.148;39.604;2022-11-13T01:54:58;35.33;;;20.42;;
52031;SDS011;38044;45.148;39.604;2022-11-13T01:57:36;38.47;;;20.73;;
52031;SDS011;38044;45.148;39.604;2022-11-13T02:00:05;35.72;;;21.13;;
52031;SDS011;38044;45.148;39.604;2022-11-13T02:02:33;37.15;;;21.30;;
52031;SDS011;38044;45.148;39.604;2022-11-13T02:05:00;40.67;;;21.95;;
52031;SDS011;38044;45.148;39.604;2022-11-13T02:07:26;44.35;;;23.25;;
52031;SDS011;38044;45.148;39.604;2022-11-13T02:09:53;42.22;;;23.27;;
52031;SDS011;38044;45.148;39.604;2022-11-13T02:12:27;41.17;;;21.73;;
52031;SDS011;38044;45.148;39.604;2022-11-13T02:14:58;40.88;;;23.00;;
52031;SDS011;38044;45.148;39.604;2022-11-13T02:17:27;45.00;;;21.67;;
52031;SDS011;38044;45.148;39.604;2022-11-13T02:19:58;39.92;;;20.55;;
52031;SDS011;38044;45.148;39.604;2022-11-13T02:25:16;40.95;;;21.27;;
52031;SDS011;38044;45.148;39.604;2022-11-13T02:27:47;33.97;;;19.10;;
52031;SDS011;38044;45.148;39.604;2022-11-13T02:30:16;34.60;;;19.65;;
52031;SDS011;38044;45.148;39.604;2022-11-13T02:32:45;35.55;;;19.95;;
52031;SDS011;38044;45.148;39.604;2022-11-13T02:35:17;34.10;;;18.73;;
52031;SDS011;38044;45.148;39.604;2022-11-13T02:37:51;32.53;;;18.17;;
52031;SDS011;38044;45.148;39.604;2022-11-13T02:40:19;33.05;;;18.25;;
52031;SDS011;38044;45.148;39.604;2022-11-13T02:42:44;32.15;;;17.83;;
52031;SDS011;38044;45.148;39.604;2022-11-13T02:45:10;31.58;;;17.08;;
52031;SDS011;38044;45.148;39.604;2022-11-13T02:47:36;34.78;;;17.60;;
52031;SDS011;38044;45.148;39.604;2022-11-13T02:50:02;31.38;;;16.20;;
52031;SDS011;38044;45.148;39.604;2022-11-13T02:52:29;33.22;;;17.75;;
52031;SDS011;38044;45.148;39.604;2022-11-13T02:54:55;35.30;;;17.98;;
52031;SDS011;38044;45.148;39.604;2022-11-13T02:57:21;34.50;;;19.02;;
52031;SDS011;38044;45.148;39.604;2022-11-13T02:59:47;35.33;;;18.55;;
52031;SDS011;38044;45.148;39.604;2022-11-13T03:02:13;34.67;;;18.38;;
52031;SDS011;38044;45.148;39.604;2022-11-13T03:04:39;31.60;;;17.00;;
52031;SDS011;38044;45.148;39.604;2022-11-13T03:07:05;34.30;;;18.90;;
52031;SDS011;38044;45.148;39.604;2022-11-13T03:09:31;30.52;;;18.05;;
52031;SDS011;38044;45.148;39.604;2022-11-13T03:11:57;32.17;;;17.83;;
52031;SDS011;38044;45.148;39.604;2022-11-13T03:14:22;35.08;;;19.08;;
52031;SDS011;38044;45.148;39.604;2022-11-13T03:16:48;32.13;;;18.75;;
52031;SDS011;38044;45.148;39.604;2022-11-13T03:19:14;33.83;;;18.25;;
52031;SDS011;38044;45.148;39.604;2022-11-13T03:21:40;34.53;;;18.30;;
52031;SDS011;38044;45.148;39.604;2022-11-13T03:24:06;30.33;;;17.05;;
52031;SDS011;38044;45.148;39.604;2022-11-13T03:26:32;33.75;;;18.75;;
52031;SDS011;38044;45.148;39.604;2022-11-13T03:28:58;34.08;;;17.75;;
52031;SDS011;38044;45.148;39.604;2022-11-13T03:31:23;32.08;;;17.70;;
52031;SDS011;38044;45.148;39.604;2022-11-13T03:33:52;31.35;;;17.30;;
52031;SDS011;38044;45.148;39.604;2022-11-13T03:36:18;29.42;;;16.55;;
52031;SDS011;38044;45.148;39.604;2022-11-13T03:38:44;31.25;;;16.60;;
52031;SDS011;38044;45.148;39.604;2022-11-13T03:41:10;31.50;;;18.15;;
52031;SDS011;38044;45.148;39.604;2022-11-13T03:43:39;30.98;;;15.63;;
52031;SDS011;38044;45.148;39.604;2022-11-13T03:46:05;31.27;;;15.63;;
52031;SDS011;38044;45.148;39.604;2022-11-13T03:48:31;28.63;;;16.13;;
52031;SDS011;38044;45.148;39.604;2022-11-13T03:50:57;26.50;;;15.00;;
52031;SDS011;38044;45.148;39.604;2022-11-13T03:53:24;26.83;;;15.18;;
52031;SDS011;38044;45.148;39.604;2022-11-13T03:55:50;26.08;;;14.95;;
52031;SDS011;38044;45.148;39.604;2022-11-13T03:58:16;24.38;;;15.18;;
52031;SDS011;38044;45.148;39.604;2022-11-13T04:00:42;22.90;;;14.13;;
52031;SDS011;38044;45.148;39.604;2022-11-13T04:03:09;26.73;;;14.77;;
52031;SDS011;38044;45.148;39.604;2022-11-13T04:05:35;28.85;;;14.75;;
52031;SDS011;38044;45.148;39.604;2022-11-13T04:08:01;23.35;;;14.25;;
52031;SDS011;38044;45.148;39.604;2022-11-13T04:10:27;25.58;;;14.82;;
52031;SDS011;38044;45.148;39.604;2022-11-13T04:12:53;23.90;;;13.80;;
52031;SDS011;38044;45.148;39.604;2022-11-13T04:15:19;27.92;;;14.32;;
52031;SDS011;38044;45.148;39.604;2022-11-13T04:17:45;25.35;;;14.05;;
52031;SDS011;38044;45.148;39.604;2022-11-13T04:20:11;23.80;;;13.48;;
52031;SDS011;38044;45.148;39.604;2022-11-13T04:22:36;26.85;;;14.90;;
52031;SDS011;38044;45.148;39.604;2022-11-13T04:25:03;25.25;;;14.27;;
52031;SDS011;38044;45.148;39.604;2022-11-13T04:27:29;22.88;;;13.90;;
52031;SDS011;38044;45.148;39.604;2022-11-13T04:29:55;25.27;;;14.20;;
52031;SDS011;38044;45.148;39.604;2022-11-13T04:32:21;27.02;;;13.45;;
52031;SDS011;38044;45.148;39.604;2022-11-13T04:34:47;24.58;;;13.55;;
52031;SDS011;38044;45.148;39.604;2022-11-13T04:37:13;26.65;;;13.13;;
52031;SDS011;38044;45.148;39.604;2022-11-13T04:39:38;22.23;;;12.40;;
52031;SDS011;38044;45.148;39.604;2022-11-13T04:42:04;22.15;;;12.23;;
52031;SDS011;38044;45.148;39.604;2022-11-13T04:44:49;21.77;;;12.95;;
52031;SDS011;38044;45.148;39.604;2022-11-13T04:47:14;19.60;;;12.55;;
52031;SDS011;38044;45.148;39.604;2022-11-13T04:49:40;19.17;;;12.10;;
52031;SDS011;38044;45.148;39.604;2022-11-13T04:52:06;19.63;;;11.63;;
52031;SDS011;38044;45.148;39.604;2022-11-13T04:54:32;19.17;;;12.15;;
52031;SDS011;38044;45.148;39.604;2022-11-13T04:56:58;17.52;;;11.77;;
52031;SDS011;38044;45.148;39.604;2022-11-13T04:59:24;15.57;;;10.63;;
52031;SDS011;38044;45.148;39.604;2022-11-13T05:01:49;14.70;;;9.90;;
52031;SDS011;38044;45.148;39.604;2022-11-13T05:04:15;18.52;;;11.00;;
52031;SDS011;38044;45.148;39.604;2022-11-13T05:06:41;15.25;;;9.63;;
52031;SDS011;38044;45.148;39.604;2022-11-13T05:09:07;14.75;;;9.57;;
52031;SDS011;38044;45.148;39.604;2022-11-13T05:11:35;13.95;;;9.60;;
52031;SDS011;38044;45.148;39.604;2022-11-13T05:14:03;12.85;;;8.65;;
52031;SDS011;38044;45.148;39.604;2022-11-13T05:16:29;13.30;;;8.73;;
52031;SDS011;38044;45.148;39.604;2022-11-13T05:18:56;14.10;;;9.43;;
52031;SDS011;38044;45.148;39.604;2022-11-13T05:21:23;17.90;;;9.00;;
52031;SDS011;38044;45.148;39.604;2022-11-13T05:23:49;14.00;;;9.68;;
52031;SDS011;38044;45.148;39.604;2022-11-13T05:26:15;15.35;;;10.45;;
52031;SDS011;38044;45.148;39.604;2022-11-13T05:28:40;17.17;;;12.00;;
52031;SDS011;38044;45.148;39.604;2022-11-13T05:31:10;16.95;;;12.35;;
52031;SDS011;38044;45.148;39.604;2022-11-13T05:33:38;17.20;;;12.70;;
52031;SDS011;38044;45.148;39.604;2022-11-13T05:36:06;16.65;;;11.95;;
52031;SDS011;38044;45.148;39.604;2022-11-13T05:38:33;15.93;;;11.63;;
52031;SDS011;38044;45.148;39.604;2022-11-13T05:41:03;18.63;;;10.25;;
52031;SDS011;38044;45.148;39.604;2022-11-13T05:43:32;14.00;;;10.00;;
52031;SDS011;38044;45.148;39.604;2022-11-13T05:46:19;19.20;;;10.95;;
52031;SDS011;38044;45.148;39.604;2022-11-13T05:48:46;17.55;;;12.02;;
52031;SDS011;38044;45.148;39.604;2022-11-13T05:51:16;19.05;;;12.60;;
52031;SDS011;38044;45.148;39.604;2022-11-13T05:53:44;18.23;;;11.25;;
52031;SDS011;38044;45.148;39.604;2022-11-13T05:56:11;16.08;;;9.55;;
52031;SDS011;38044;45.148;39.604;2022-11-13T05:58:41;18.50;;;10.25;;
52031;SDS011;38044;45.148;39.604;2022-11-13T06:01:09;17.55;;;10.00;;
52031;SDS011;38044;45.148;39.604;2022-11-13T06:03:36;16.60;;;9.70;;
52031;SDS011;38044;45.148;39.604;2022-11-13T06:06:03;15.73;;;9.65;;
52031;SDS011;38044;45.148;39.604;2022-11-13T06:08:30;15.95;;;9.70;;
52031;SDS011;38044;45.148;39.604;2022-11-13T06:10:58;20.55;;;10.27;;
52031;SDS011;38044;45.148;39.604;2022-11-13T06:13:31;16.25;;;10.82;;
52031;SDS011;38044;45.148;39.604;2022-11-13T06:16:03;18.73;;;11.30;;
52031;SDS011;38044;45.148;39.604;2022-11-13T06:18:37;21.92;;;11.48;;
52031;SDS011;38044;45.148;39.604;2022-11-13T06:21:06;20.63;;;11.55;;
52031;SDS011;38044;45.148;39.604;2022-11-13T06:23:35;20.38;;;11.70;;
52031;SDS011;38044;45.148;39.604;2022-11-13T06:26:02;22.85;;;12.25;;
52031;SDS011;38044;45.148;39.604;2022-11-13T06:28:31;21.45;;;12.35;;
52031;SDS011;38044;45.148;39.604;2022-11-13T06:31:04;20.63;;;12.00;;
52031;SDS011;38044;45.148;39.604;2022-11-13T06:33:34;22.95;;;11.85;;
52031;SDS011;38044;45.148;39.604;2022-11-13T06:36:02;21.63;;;12.88;;
52031;SDS011;38044;45.148;39.604;2022-11-13T06:38:33;21.38;;;13.18;;
52031;SDS011;38044;45.148;39.604;2022-11-13T06:41:00;24.23;;;13.13;;
52031;SDS011;38044;45.148;39.604;2022-11-13T06:43:26;25.48;;;15.13;;
52031;SDS011;38044;45.148;39.604;2022-11-13T06:45:53;18.48;;;12.23;;
52031;SDS011;38044;45.148;39.604;2022-11-13T06:48:19;19.88;;;12.65;;
52031;SDS011;38044;45.148;39.604;2022-11-13T06:50:46;19.52;;;12.30;;
52031;SDS011;38044;45.148;39.604;2022-11-13T06:53:13;20.55;;;12.27;;
52031;SDS011;38044;45.148;39.604;2022-11-13T06:55:46;22.75;;;12.27;;
52031;SDS011;38044;45.148;39.604;2022-11-13T06:58:14;17.10;;;11.25;;
52031;SDS011;38044;45.148;39.604;2022-11-13T07:00:40;24.25;;;11.50;;
52031;SDS011;38044;45.148;39.604;2022-11-13T07:03:25;16.75;;;10.88;;
52031;SDS011;38044;45.148;39.604;2022-11-13T07:05:51;16.25;;;10.82;;
52031;SDS011;38044;45.148;39.604;2022-11-13T07:08:17;18.05;;;11.65;;
52031;SDS011;38044;45.148;39.604;2022-11-13T07:10:52;15.70;;;10.23;;
52031;SDS011;38044;45.148;39.604;2022-11-13T07:13:19;15.00;;;10.18;;
52031;SDS011;38044;45.148;39.604;2022-11-13T07:15:46;15.18;;;10.25;;
52031;SDS011;38044;45.148;39.604;2022-11-13T07:18:12;21.15;;;12.18;;
52031;SDS011;38044;45.148;39.604;2022-11-13T07:20:38;17.77;;;11.73;;
52031;SDS011;38044;45.148;39.604;2022-11-13T07:23:04;18.88;;;12.57;;
52031;SDS011;38044;45.148;39.604;2022-11-13T07:25:30;15.77;;;10.25;;
52031;SDS011;38044;45.148;39.604;2022-11-13T07:27:56;14.88;;;10.45;;
52031;SDS011;38044;45.148;39.604;2022-11-13T07:30:22;14.55;;;9.07;;
52031;SDS011;38044;45.148;39.604;2022-11-13T07:32:48;11.02;;;8.77;;
52031;SDS011;38044;45.148;39.604;2022-11-13T07:35:15;10.43;;;7.40;;
52031;SDS011;38044;45.148;39.604;2022-11-13T07:37:41;11.50;;;7.65;;
52031;SDS011;38044;45.148;39.604;2022-11-13T07:40:07;10.30;;;7.80;;
52031;SDS011;38044;45.148;39.604;2022-11-13T07:42:34;11.90;;;8.55;;
52031;SDS011;38044;45.148;39.604;2022-11-13T07:45:00;12.23;;;8.90;;
52031;SDS011;38044;45.148;39.604;2022-11-13T07:47:26;11.50;;;7.90;;
52031;SDS011;38044;45.148;39.604;2022-11-13T07:49:52;14.57;;;8.40;;
52031;SDS011;38044;45.148;39.604;2022-11-13T07:52:18;15.85;;;9.95;;
52031;SDS011;38044;45.148;39.604;2022-11-13T07:54:44;12.05;;;8.60;;
52031;SDS011;38044;45.148;39.604;2022-11-13T07:57:10;10.80;;;7.63;;
52031;SDS011;38044;45.148;39.604;2022-11-13T07:59:35;10.40;;;7.78;;
52031;SDS011;38044;45.148;39.604;2022-11-13T08:02:01;9.02;;;6.40;;
52031;SDS011;38044;45.148;39.604;2022-11-13T08:04:28;9.20;;;6.85;;
52031;SDS011;38044;45.148;39.604;2022-11-13T08:06:54;12.15;;;7.57;;
52031;SDS011;38044;45.148;39.604;2022-11-13T08:09:20;10.82;;;6.10;;
52031;SDS011;38044;45.148;39.604;2022-11-13T08:11:46;11.30;;;7.07;;
52031;SDS011;38044;45.148;39.604;2022-11-13T08:14:12;14.15;;;9.27;;
52031;SDS011;38044;45.148;39.604;2022-11-13T08:16:38;9.23;;;7.38;;
52031;SDS011;38044;45.148;39.604;2022-11-13T08:19:04;10.70;;;7.25;;
52031;SDS011;38044;45.148;39.604;2022-11-13T08:21:29;12.40;;;8.07;;
52031;SDS011;38044;45.148;39.604;2022-11-13T08:23:56;9.90;;;7.32;;
52031;SDS011;38044;45.148;39.604;2022-11-13T08:26:21;13.10;;;7.10;;
52031;SDS011;38044;45.148;39.604;2022-11-13T08:28:50;12.93;;;7.00;;
52031;SDS011;38044;45.148;39.604;2022-11-13T08:31:16;7.93;;;6.53;;
52031;SDS011;38044;45.148;39.604;2022-11-13T08:33:42;10.25;;;7.45;;
52031;SDS011;38044;45.148;39.604;2022-11-13T08:36:08;13.63;;;9.23;;
52031;SDS011;38044;45.148;39.604;2022-11-13T08:38:35;10.57;;;7.50;;
52031;SDS011;38044;45.148;39.604;2022-11-13T08:41:02;11.43;;;7.22;;
52031;SDS011;38044;45.148;39.604;2022-11-13T08:43:29;18.77;;;11.60;;
52031;SDS011;38044;45.148;39.604;2022-11-13T08:45:55;18.45;;;12.18;;
52031;SDS011;38044;45.148;39.604;2022-11-13T08:48:21;18.77;;;12.50;;
52031;SDS011;38044;45.148;39.604;2022-11-13T08:50:52;20.38;;;12.20;;
52031;SDS011;38044;45.148;39.604;2022-11-13T08:53:19;11.27;;;7.30;;
52031;SDS011;38044;45.148;39.604;2022-11-13T08:55:46;10.30;;;6.80;;
52031;SDS011;38044;45.148;39.604;2022-11-13T08:58:11;10.05;;;5.90;;
52031;SDS011;38044;45.148;39.604;2022-11-13T09:00:37;10.85;;;6.25;;
52031;SDS011;38044;45.148;39.604;2022-11-13T09:03:03;11.10;;;5.55;;
52031;SDS011;38044;45.148;39.604;2022-11-13T09:05:29;10.85;;;5.93;;
52031;SDS011;38044;45.148;39.604;2022-11-13T09:07:58;7.25;;;5.00;;
52031;SDS011;38044;45.148;39.604;2022-11-13T09:10:26;9.57;;;5.28;;
52031;SDS011;38044;45.148;39.604;2022-11-13T09:12:56;8.00;;;5.35;;
52031;SDS011;38044;45.148;39.604;2022-11-13T09:15:26;10.93;;;7.00;;
52031;SDS011;38044;45.148;39.604;2022-11-13T09:17:57;14.00;;;7.22;;
52031;SDS011;38044;45.148;39.604;2022-11-13T09:20:23;9.07;;;6.82;;
52031;SDS011;38044;45.148;39.604;2022-11-13T09:22:57;15.55;;;9.30;;
52031;SDS011;38044;45.148;39.604;2022-11-13T09:25:23;29.60;;;20.50;;
52031;SDS011;38044;45.148;39.604;2022-11-13T09:27:52;14.25;;;9.93;;
52031;SDS011;38044;45.148;39.604;2022-11-13T09:30:22;13.10;;;9.15;;
52031;SDS011;38044;45.148;39.604;2022-11-13T09:32:52;12.63;;;8.73;;
52031;SDS011;38044;45.148;39.604;2022-11-13T09:35:19;11.77;;;8.27;;
52031;SDS011;38044;45.148;39.604;2022-11-13T09:38:16;11.63;;;7.78;;
52031;SDS011;38044;45.148;39.604;2022-11-13T09:40:55;11.55;;;7.95;;
52031;SDS011;38044;45.148;39.604;2022-11-13T09:43:26;11.85;;;8.30;;
52031;SDS011;38044;45.148;39.604;2022-11-13T09:48:37;12.88;;;8.32;;
52031;SDS011;38044;45.148;39.604;2022-11-13T09:51:12;11.15;;;8.13;;
52031;SDS011;38044;45.148;39.604;2022-11-13T09:53:41;11.82;;;8.85;;
52031;SDS011;38044;45.148;39.604;2022-11-13T10:01:27;11.38;;;8.35;;
52031;SDS011;38044;45.148;39.604;2022-11-13T10:04:14;11.52;;;8.05;;
52031;SDS011;38044;45.148;39.604;2022-11-13T10:06:59;13.52;;;8.40;;
52031;SDS011;38044;45.148;39.604;2022-11-13T10:10:02;13.05;;;8.52;;
52031;SDS011;38044;45.148;39.604;2022-11-13T10:12:57;11.98;;;8.55;;
52031;SDS011;38044;45.148;39.604;2022-11-13T10:15:24;11.85;;;8.82;;
52031;SDS011;38044;45.148;39.604;2022-11-13T10:17:59;13.43;;;8.07;;
52031;SDS011;38044;45.148;39.604;2022-11-13T10:25:48;27.02;;;15.27;;
52031;SDS011;38044;45.148;39.604;2022-11-13T10:28:20;22.02;;;13.32;;
52031;SDS011;38044;45.148;39.604;2022-11-13T10:30:51;20.65;;;11.95;;
52031;SDS011;38044;45.148;39.604;2022-11-13T10:33:17;19.55;;;11.80;;
52031;SDS011;38044;45.148;39.604;2022-11-13T10:35:57;22.05;;;12.75;;
52031;SDS011;38044;45.148;39.604;2022-11-13T10:38:42;26.15;;;16.63;;
52031;SDS011;38044;45.148;39.604;2022-11-13T10:41:17;29.20;;;16.00;;
52031;SDS011;38044;45.148;39.604;2022-11-13T10:43:54;33.95;;;20.42;;
52031;SDS011;38044;45.148;39.604;2022-11-13T10:46:27;20.38;;;13.13;;
52031;SDS011;38044;45.148;39.604;2022-11-13T10:48:57;24.90;;;14.15;;
52031;SDS011;38044;45.148;39.604;2022-11-13T10:51:35;28.17;;;16.38;;
52031;SDS011;38044;45.148;39.604;2022-11-13T10:54:15;29.73;;;15.95;;
52031;SDS011;38044;45.148;39.604;2022-11-13T10:56:57;28.88;;;14.52;;
52031;SDS011;38044;45.148;39.604;2022-11-13T10:59:37;19.83;;;12.55;;
52031;SDS011;38044;45.148;39.604;2022-11-13T11:04:35;21.42;;;12.95;;
52031;SDS011;38044;45.148;39.604;2022-11-13T11:07:15;20.15;;;10.93;;
52031;SDS011;38044;45.148;39.604;2022-11-13T11:09:43;18.85;;;11.25;;
52031;SDS011;38044;45.148;39.604;2022-11-13T11:12:15;16.95;;;10.60;;
52031;SDS011;38044;45.148;39.604;2022-11-13T11:17:20;18.55;;;10.82;;
52031;SDS011;38044;45.148;39.604;2022-11-13T11:19:52;25.67;;;12.38;;
52031;SDS011;38044;45.148;39.604;2022-11-13T11:22:25;19.33;;;10.25;;
52031;SDS011;38044;45.148;39.604;2022-11-13T11:24:57;17.15;;;9.80;;
52031;SDS011;38044;45.148;39.604;2022-11-13T11:27:38;14.15;;;9.30;;
52031;SDS011;38044;45.148;39.604;2022-11-13T11:30:22;13.80;;;9.52;;
52031;SDS011;38044;45.148;39.604;2022-11-13T11:32:59;13.90;;;9.80;;
52031;SDS011;38044;45.148;39.604;2022-11-13T11:39:21;18.85;;;11.10;;
52031;SDS011;38044;45.148;39.604;2022-11-13T11:41:48;19.13;;;10.20;;
52031;SDS011;38044;45.148;39.604;2022-11-13T11:44:20;20.63;;;10.52;;
52031;SDS011;38044;45.148;39.604;2022-11-13T11:47:00;14.85;;;10.23;;
52031;SDS011;38044;45.148;39.604;2022-11-13T11:49:26;15.57;;;9.98;;
52031;SDS011;38044;45.148;39.604;2022-11-13T11:54:44;21.23;;;12.13;;
52031;SDS011;38044;45.148;39.604;2022-11-13T12:00:12;18.00;;;11.48;;
52031;SDS011;38044;45.148;39.604;2022-11-13T12:08:21;20.80;;;11.60;;
52031;SDS011;38044;45.148;39.604;2022-11-13T12:13:57;20.83;;;11.80;;
52031;SDS011;38044;45.148;39.604;2022-11-13T12:22:36;19.33;;;12.27;;
52031;SDS011;38044;45.148;39.604;2022-11-13T12:25:48;24.00;;;12.88;;
52031;SDS011;38044;45.148;39.604;2022-11-13T12:28:43;22.02;;;12.30;;
52031;SDS011;38044;45.148;39.604;2022-11-13T12:36:25;22.50;;;13.65;;
52031;SDS011;38044;45.148;39.604;2022-11-13T12:44:20;20.40;;;13.10;;
52031;SDS011;38044;45.148;39.604;2022-11-13T12:46:47;22.48;;;12.57;;
52031;SDS011;38044;45.148;39.604;2022-11-13T12:51:54;35.80;;;19.95;;
52031;SDS011;38044;45.148;39.604;2022-11-13T12:54:28;46.20;;;25.67;;
52031;SDS011;38044;45.148;39.604;2022-11-13T12:59:39;49.70;;;26.90;;
52031;SDS011;38044;45.148;39.604;2022-11-13T13:07:49;64.65;;;29.20;;
52031;SDS011;38044;45.148;39.604;2022-11-13T13:10:45;27.25;;;15.95;;
52031;SDS011;38044;45.148;39.604;2022-11-13T13:13:18;31.83;;;16.00;;
52031;SDS011;38044;45.148;39.604;2022-11-13T13:15:58;42.72;;;22.23;;
52031;SDS011;38044;45.148;39.604;2022-11-13T13:18:36;47.28;;;24.02;;
52031;SDS011;38044;45.148;39.604;2022-11-13T13:21:10;31.90;;;17.58;;
52031;SDS011;38044;45.148;39.604;2022-11-13T13:23:41;35.78;;;20.13;;
52031;SDS011;38044;45.148;39.604;2022-11-13T13:26:24;30.25;;;17.35;;
52031;SDS011;38044;45.148;39.604;2022-11-13T13:28:53;32.60;;;17.67;;
52031;SDS011;38044;45.148;39.604;2022-11-13T13:36:59;16.42;;;10.65;;
52031;SDS011;38044;45.148;39.604;2022-11-13T13:39:35;20.92;;;11.82;;
52031;SDS011;38044;45.148;39.604;2022-11-13T13:42:46;24.92;;;12.75;;
52031;SDS011;38044;45.148;39.604;2022-11-13T13:48:27;22.77;;;14.07;;
52031;SDS011;38044;45.148;39.604;2022-11-13T13:50:55;26.70;;;14.10;;
52031;SDS011;38044;45.148;39.604;2022-11-13T13:53:24;32.90;;;14.98;;
52031;SDS011;38044;45.148;39.604;2022-11-13T13:55:55;29.75;;;14.00;;
52031;SDS011;38044;45.148;39.604;2022-11-13T13:58:28;24.27;;;14.73;;
52031;SDS011;38044;45.148;39.604;2022-11-13T14:00:59;25.58;;;14.55;;
52031;SDS011;38044;45.148;39.604;2022-11-13T14:03:27;24.25;;;13.73;;
52031;SDS011;38044;45.148;39.604;2022-11-13T14:05:54;21.52;;;11.77;;
52031;SDS011;38044;45.148;39.604;2022-11-13T14:08:24;19.88;;;11.00;;
52031;SDS011;38044;45.148;39.604;2022-11-13T14:10:51;21.88;;;12.52;;
52031;SDS011;38044;45.148;39.604;2022-11-13T14:13:26;23.65;;;14.20;;
52031;SDS011;38044;45.148;39.604;2022-11-13T14:16:04;18.30;;;11.85;;
52031;SDS011;38044;45.148;39.604;2022-11-13T14:18:31;26.58;;;15.05;;
52031;SDS011;38044;45.148;39.604;2022-11-13T14:20:59;30.55;;;16.05;;
52031;SDS011;38044;45.148;39.604;2022-11-13T14:23:35;33.15;;;17.33;;
52031;SDS011;38044;45.148;39.604;2022-11-13T14:26:11;31.65;;;17.55;;
52031;SDS011;38044;45.148;39.604;2022-11-13T14:28:45;33.60;;;17.27;;
52031;SDS011;38044;45.148;39.604;2022-11-13T14:31:29;32.08;;;18.05;;
52031;SDS011;38044;45.148;39.604;2022-11-13T14:34:01;37.08;;;21.02;;
52031;SDS011;38044;45.148;39.604;2022-11-13T14:36:33;34.42;;;19.35;;
52031;SDS011;38044;45.148;39.604;2022-11-13T14:39:01;38.33;;;19.02;;
52031;SDS011;38044;45.148;39.604;2022-11-13T14:41:38;35.47;;;20.67;;
52031;SDS011;38044;45.148;39.604;2022-11-13T14:44:23;31.95;;;19.33;;
52031;SDS011;38044;45.148;39.604;2022-11-13T14:47:00;30.58;;;15.50;;
52031;SDS011;38044;45.148;39.604;2022-11-13T14:49:30;26.35;;;16.42;;
52031;SDS011;38044;45.148;39.604;2022-11-13T14:52:00;32.70;;;17.58;;
52031;SDS011;38044;45.148;39.604;2022-11-13T14:54:31;26.27;;;16.40;;
52031;SDS011;38044;45.148;39.604;2022-11-13T14:57:05;32.00;;;16.97;;
52031;SDS011;38044;45.148;39.604;2022-11-13T14:59:35;28.33;;;16.52;;
52031;SDS011;38044;45.148;39.604;2022-11-13T15:02:02;25.02;;;15.05;;
52031;SDS011;38044;45.148;39.604;2022-11-13T15:04:28;26.10;;;14.88;;
52031;SDS011;38044;45.148;39.604;2022-11-13T15:06:57;27.45;;;14.98;;
52031;SDS011;38044;45.148;39.604;2022-11-13T15:09:25;28.70;;;16.10;;
52031;SDS011;38044;45.148;39.604;2022-11-13T15:11:52;23.30;;;14.20;;
52031;SDS011;38044;45.148;39.604;2022-11-13T15:14:19;23.15;;;13.73;;
52031;SDS011;38044;45.148;39.604;2022-11-13T15:16:46;24.27;;;14.00;;
52031;SDS011;38044;45.148;39.604;2022-11-13T15:21:58;24.45;;;14.77;;
52031;SDS011;38044;45.148;39.604;2022-11-13T15:24:25;21.23;;;13.55;;
52031;SDS011;38044;45.148;39.604;2022-11-13T15:26:52;22.90;;;13.85;;
52031;SDS011;38044;45.148;39.604;2022-11-13T15:29:18;21.27;;;12.98;;
52031;SDS011;38044;45.148;39.604;2022-11-13T15:31:44;22.02;;;13.23;;
52031;SDS011;38044;45.148;39.604;2022-11-13T15:34:12;24.20;;;13.15;;
52031;SDS011;38044;45.148;39.604;2022-11-13T15:36:39;20.15;;;13.25;;
52031;SDS011;38044;45.148;39.604;2022-11-13T15:39:06;24.75;;;13.02;;
52031;SDS011;38044;45.148;39.604;2022-11-13T15:41:33;20.85;;;12.35;;
52031;SDS011;38044;45.148;39.604;2022-11-13T15:44:01;18.70;;;12.13;;